La Fayette, Illinois
Current Conditions -  °F | °C
As of 5:15 PM on Saturday 25 Oct 2014 (Local Time) from KGBG Reporting Station
Clear Clear  
Wind Chill: 20°   Ceiling: Unl
Heat Index: 20°   Visibility: 10mi
Dew Point:   Wind: 7mph
Humidity: 35%   Direction: 280°W
Pressure: 30.01"   Gusts: NA
Location:  41.11°N, 89.97°W
Report Text: KGBG 252215Z AUTO 28006KT 10SM CLR 20/04 A3001 RMK AO2 T02020041
Loading
Personal Weather Stations






























Interactive Weather Map
Tropical Storm Tracking
New forecast layout! Learn more

10-Day Weather Forecast

Advertisements
Track Severe Weather on mobile